ENMS/MJF METAR and TAF weather

Enter ICAO airport designator
Station Type Date Time Source
ENMS METAR 2021/09/20 05:50 UTC NOAA

ENMS 200550Z VRB02KT 9999 BKN049 09/02 Q1025 RMK WIND 412FT VRB02KT


Station Type Date Time Source
ENMS Decoded METAR 2021/09/20 05:50 UTC NOAA

Mosjoen Kjaerstad, Norway (ENMS) 65-48N 013-08E
Sep 20, 2021 - 01:50 AM EDT / 2021.09.20 0550 UTC
Wind: Variable at 2 MPH (2 KT):0
Visibility: greater than 7 mile(s):0
Sky conditions: mostly cloudy
Temperature: 48 F (9 C)
Dew Point: 35 F (2 C)
Relative Humidity: 61%
Pressure (altimeter): 30.27 in. Hg (1025 hPa)
ob: ENMS 200550Z VRB02KT 9999 BKN049 09/02 Q1025 RMK WIND 412FT VRB02KT
cycle: 6

Station Type Date Time Source
ENMS TAF UTC NOAA

Error!

Example: see airport list